Time;durP1;ratioP1;P1;durP2;ratioP2;P2;SDS_P1;SDS_P2;PMS_P1;PMS_P2;Temp;Humidity;BMP_temperature;BMP_pressure;BME280_temperature;BME280_humidity;BME280_pressure;Samples;Min_cycle;Max_cycle;Signal;HPM_P1;HPM_P2
2023/07/09 00:01:47;;;;;;;10.98;5.80;;;22.40;95.50;;;;;;6246330;23;20028;-61
2023/07/09 00:04:14;;;;;;;9.52;6.05;;;22.30;95.60;;;;;;6244541;23;20086;-60
2023/07/09 00:06:42;;;;;;;7.10;5.28;;;22.30;95.80;;;;;;6243690;23;20075;-61
2023/07/09 00:09:14;;;;;;;9.40;5.65;;;22.20;96.10;;;;;;6245975;23;20020;-61
2023/07/09 00:11:41;;;;;;;9.32;5.78;;;22.20;96.30;;;;;;6244512;23;20043;-60
2023/07/09 00:14:09;;;;;;;8.52;5.88;;;22.20;96.30;;;;;;6245947;23;20028;-60
2023/07/09 00:16:36;;;;;;;7.15;5.82;;;22.20;96.40;;;;;;6244501;23;20028;-60
2023/07/09 00:19:05;;;;;;;11.82;6.40;;;22.10;96.50;;;;;;6243611;23;20020;-60
2023/07/09 00:21:33;;;;;;;9.27;5.35;;;22.10;96.70;;;;;;6245824;23;20024;-61
2023/07/09 00:24:04;;;;;;;10.32;6.53;;;22.10;96.80;;;;;;6245967;23;20392;-61
2023/07/09 00:26:32;;;;;;;8.45;5.80;;;22.10;97.00;;;;;;6245193;23;20031;-61
2023/07/09 00:28:59;;;;;;;10.88;6.28;;;22.10;97.20;;;;;;6244387;23;20454;-61
2023/07/09 00:31:26;;;;;;;11.13;6.05;;;22.00;97.30;;;;;;6246041;23;20024;-61
2023/07/09 00:33:55;;;;;;;9.77;5.70;;;22.00;97.50;;;;;;6245537;23;20342;-61
2023/07/09 00:36:28;;;;;;;9.68;6.75;;;22.00;97.80;;;;;;6245822;23;20406;-61
2023/07/09 00:38:59;;;;;;;9.23;6.18;;;22.10;98.00;;;;;;6245755;23;20070;-62
2023/07/09 00:41:28;;;;;;;8.13;6.15;;;22.00;98.10;;;;;;6243264;23;20074;-61
2023/07/09 00:43:55;;;;;;;7.60;5.50;;;22.00;98.30;;;;;;6245837;22;20451;-61
2023/07/09 00:47:00;;;;;;;9.20;5.60;;;22.00;98.50;;;;;;6245969;22;20031;-60
2023/07/09 00:49:33;;;;;;;9.05;6.03;;;22.00;98.80;;;;;;6244133;23;20020;-61
2023/07/09 00:52:04;;;;;;;8.07;6.15;;;22.00;98.70;;;;;;6245899;23;20027;-61
2023/07/09 00:54:37;;;;;;;9.38;6.65;;;22.00;98.70;;;;;;6245318;23;20024;-60
2023/07/09 00:57:09;;;;;;;9.98;6.25;;;22.00;99.00;;;;;;6245604;23;20078;-59
2023/07/09 00:59:37;;;;;;;11.05;6.72;;;22.00;99.00;;;;;;6244007;23;20024;-60
2023/07/09 01:02:04;;;;;;;8.05;6.07;;;22.00;99.10;;;;;;6245011;23;20024;-60
2023/07/09 01:04:31;;;;;;;15.20;7.10;;;22.00;99.30;;;;;;6245904;23;20024;-61
2023/07/09 01:06:58;;;;;;;11.30;6.28;;;22.00;99.30;;;;;;6243911;23;20032;-61
2023/07/09 01:09:26;;;;;;;8.60;5.75;;;22.00;99.50;;;;;;6243209;23;20403;-60
2023/07/09 01:11:56;;;;;;;10.15;6.55;;;22.00;99.50;;;;;;6244260;23;20028;-60
2023/07/09 01:14:25;;;;;;;8.87;5.70;;;22.00;99.50;;;;;;6244075;23;20028;-60
2023/07/09 01:16:59;;;;;;;8.90;6.28;;;22.00;99.40;;;;;;6244779;23;20031;-60
2023/07/09 01:19:28;;;;;;;8.70;5.78;;;21.90;99.40;;;;;;6243819;23;20077;-60
2023/07/09 01:21:58;;;;;;;9.75;6.10;;;22.00;99.30;;;;;;6245537;22;20058;-61
2023/07/09 01:24:49;;;;;;;9.43;6.15;;;21.90;99.50;;;;;;6243309;23;20066;-61
2023/07/09 01:27:16;;;;;;;;;;;21.90;99.90;;;;;;6246185;23;20074;-61
2023/07/09 01:29:45;;;;;;;11.43;6.13;;;21.90;99.90;;;;;;6245025;23;19923;-61
2023/07/09 01:32:14;;;;;;;11.25;6.38;;;21.80;99.90;;;;;;6245497;23;20020;-62
2023/07/09 01:34:42;;;;;;;9.98;6.00;;;21.80;99.90;;;;;;6245551;23;20028;-61
2023/07/09 01:37:11;;;;;;;7.55;5.72;;;21.80;99.90;;;;;;6243005;23;20028;-60
2023/07/09 01:39:40;;;;;;;9.98;6.68;;;21.70;99.90;;;;;;6243650;23;20452;-59
2023/07/09 01:42:08;;;;;;;8.70;5.67;;;21.70;99.90;;;;;;6243406;23;20036;-60
2023/07/09 01:44:35;;;;;;;16.92;7.03;;;21.70;99.90;;;;;;6242976;23;20074;-60
2023/07/09 01:47:03;;;;;;;11.55;6.18;;;21.60;99.90;;;;;;6243615;23;20024;-60
2023/07/09 01:49:32;;;;;;;8.57;5.97;;;21.60;99.90;;;;;;6245387;23;20024;-61
2023/07/09 01:52:01;;;;;;;10.27;5.60;;;21.50;99.90;;;;;;6242867;23;20331;-61
2023/07/09 01:54:31;;;;;;;11.93;6.17;;;21.50;99.90;;;;;;6245564;23;20063;-60
2023/07/09 01:57:15;;;;;;;11.30;6.13;;;21.50;99.90;;;;;;6245245;22;20077;-60
2023/07/09 01:59:43;;;;;;;11.18;5.75;;;21.50;99.90;;;;;;6245458;23;20020;-60
2023/07/09 02:02:18;;;;;;;10.45;6.18;;;21.40;99.90;;;;;;6243515;23;20035;-61
2023/07/09 02:04:47;;;;;;;14.10;5.95;;;21.40;99.90;;;;;;6244928;23;20066;-61
2023/07/09 02:07:14;;;;;;;8.45;5.80;;;21.40;99.90;;;;;;6245411;23;20024;-61
2023/07/09 02:09:43;;;;;;;10.57;7.05;;;21.40;99.90;;;;;;6245422;23;20458;-61
2023/07/09 02:12:11;;;;;;;10.05;6.47;;;21.30;99.90;;;;;;6242743;23;20078;-61
2023/07/09 02:14:39;;;;;;;7.85;6.15;;;21.30;99.90;;;;;;6243767;23;20020;-62
2023/07/09 02:17:06;;;;;;;7.95;6.20;;;21.30;99.90;;;;;;6243426;23;20484;-61
2023/07/09 02:19:33;;;;;;;11.13;6.38;;;21.20;99.90;;;;;;6242608;23;20335;-60
2023/07/09 02:21:59;;;;;;;11.95;6.70;;;21.20;99.90;;;;;;6245307;23;20027;-60
2023/07/09 02:24:27;;;;;;;11.73;6.38;;;21.20;99.90;;;;;;6243534;23;20043;-60
2023/07/09 02:26:56;;;;;;;10.07;5.72;;;21.10;99.90;;;;;;6244351;23;20466;-60
2023/07/09 02:29:24;;;;;;;10.93;6.85;;;21.10;99.90;;;;;;6245567;23;20016;-60
2023/07/09 02:31:54;;;;;;;12.77;6.50;;;21.10;99.90;;;;;;6243440;23;20462;-61
2023/07/09 02:34:21;;;;;;;8.10;6.30;;;21.10;99.90;;;;;;6244529;23;20024;-59
2023/07/09 02:36:48;;;;;;;8.38;6.30;;;21.10;99.90;;;;;;6243529;23;20024;-60
2023/07/09 02:39:15;;;;;;;9.48;6.22;;;21.00;99.90;;;;;;6244995;23;20016;-60
2023/07/09 02:41:42;;;;;;;11.93;6.60;;;21.00;99.90;;;;;;6244295;23;20043;-60
2023/07/09 02:44:11;;;;;;;10.40;6.25;;;21.00;99.90;;;;;;6243377;23;20028;-60
2023/07/09 02:46:37;;;;;;;11.27;6.78;;;21.00;99.90;;;;;;6244572;23;20024;-60
2023/07/09 02:49:06;;;;;;;10.35;6.80;;;21.00;99.90;;;;;;6244866;23;20520;-60
2023/07/09 02:51:33;;;;;;;8.82;6.53;;;20.90;99.90;;;;;;6245110;23;20035;-60
2023/07/09 02:54:03;;;;;;;9.43;6.57;;;20.90;99.90;;;;;;6242570;23;20074;-60
2023/07/09 02:56:30;;;;;;;10.40;7.47;;;20.90;99.90;;;;;;6245156;23;20028;-60
2023/07/09 02:58:57;;;;;;;9.65;7.10;;;20.80;99.90;;;;;;6243098;23;20031;-60
2023/07/09 03:01:26;;;;;;;11.98;7.13;;;20.80;99.90;;;;;;6245635;23;20389;-60
2023/07/09 03:03:53;;;;;;;10.32;6.47;;;20.90;99.90;;;;;;6246688;23;20359;-60
2023/07/09 03:06:21;;;;;;;9.48;6.88;;;20.90;99.90;;;;;;6244952;23;20024;-59
2023/07/09 03:08:48;;;;;;;12.02;7.15;;;20.90;99.90;;;;;;6243861;23;20027;-60
2023/07/09 03:11:17;;;;;;;9.85;6.47;;;20.90;99.90;;;;;;6246742;23;20024;-60
2023/07/09 03:13:44;;;;;;;9.77;7.07;;;20.90;99.90;;;;;;6246180;23;20024;-59
2023/07/09 03:16:11;;;;;;;10.65;6.88;;;20.90;99.90;;;;;;6243896;23;20028;-61
2023/07/09 03:18:40;;;;;;;10.77;6.63;;;20.90;99.90;;;;;;6246256;23;20016;-60
2023/07/09 03:21:07;;;;;;;9.35;6.70;;;20.90;99.90;;;;;;6246457;23;20028;-59
2023/07/09 03:23:34;;;;;;;13.68;7.60;;;20.90;99.90;;;;;;6245814;23;20023;-60
2023/07/09 03:26:01;;;;;;;13.15;6.72;;;20.80;99.90;;;;;;6246740;23;20035;-61
2023/07/09 03:28:28;;;;;;;11.05;7.13;;;20.80;99.90;;;;;;6246374;23;20028;-60
2023/07/09 03:30:56;;;;;;;10.40;7.18;;;20.80;99.90;;;;;;6246045;23;20028;-60
2023/07/09 03:33:24;;;;;;;8.98;6.75;;;20.80;99.90;;;;;;6246535;23;20028;-61
2023/07/09 03:35:53;;;;;;;9.40;7.10;;;20.80;99.90;;;;;;6245968;23;20020;-62
2023/07/09 03:38:19;;;;;;;8.30;6.35;;;20.80;99.90;;;;;;6246554;23;20020;-60
2023/07/09 03:40:46;;;;;;;10.30;6.63;;;20.80;99.90;;;;;;6244739;23;20074;-60
2023/07/09 03:43:13;;;;;;;10.55;7.05;;;20.80;99.90;;;;;;6243917;23;20032;-60
2023/07/09 03:45:40;;;;;;;8.55;6.40;;;20.80;99.90;;;;;;6244568;23;20031;-59
2023/07/09 03:48:07;;;;;;;10.73;7.57;;;20.80;99.90;;;;;;6246229;23;20020;-59
2023/07/09 03:50:34;;;;;;;7.55;6.43;;;20.80;99.90;;;;;;6245338;23;20524;-60
2023/07/09 03:53:02;;;;;;;9.85;6.80;;;20.80;99.90;;;;;;6244503;23;20024;-60
2023/07/09 03:55:29;;;;;;;9.80;7.03;;;20.80;99.90;;;;;;6246702;23;20051;-60
2023/07/09 03:57:57;;;;;;;13.48;6.63;;;20.80;99.90;;;;;;6245504;23;20027;-60
2023/07/09 04:00:24;;;;;;;9.30;7.10;;;20.80;99.90;;;;;;6244527;23;20071;-60
2023/07/09 04:02:52;;;;;;;9.27;7.15;;;20.80;99.90;;;;;;6244521;23;20393;-60
2023/07/09 04:05:19;;;;;;;9.95;6.65;;;20.90;99.90;;;;;;6245669;23;20346;-60
2023/07/09 04:07:46;;;;;;;8.63;6.70;;;20.90;99.90;;;;;;6246495;23;20031;-60
2023/07/09 04:10:15;;;;;;;10.05;7.07;;;20.90;99.90;;;;;;6246327;23;20024;-59
2023/07/09 04:12:42;;;;;;;9.30;5.75;;;20.90;99.90;;;;;;6245039;23;20031;-60
2023/07/09 04:15:12;;;;;;;8.20;6.47;;;20.90;99.90;;;;;;6246207;23;20024;-60
2023/07/09 04:17:40;;;;;;;7.53;6.32;;;21.00;99.90;;;;;;6246051;23;20358;-60
2023/07/09 04:20:09;;;;;;;8.93;6.20;;;21.00;99.90;;;;;;6243611;23;20024;-59
2023/07/09 04:22:37;;;;;;;9.25;6.55;;;21.00;99.90;;;;;;6244546;23;20103;-61
2023/07/09 04:25:06;;;;;;;10.07;6.97;;;21.10;99.90;;;;;;6243649;23;20102;-61
2023/07/09 04:27:34;;;;;;;9.73;7.00;;;21.20;99.90;;;;;;6246347;23;20082;-61
2023/07/09 04:30:02;;;;;;;17.55;6.85;;;21.10;99.90;;;;;;6246209;23;20066;-61
2023/07/09 04:32:29;;;;;;;11.02;6.75;;;21.20;99.90;;;;;;6243666;23;20028;-60
2023/07/09 04:34:56;;;;;;;10.68;6.68;;;21.30;99.90;;;;;;6244372;23;20020;-61
2023/07/09 04:37:23;;;;;;;9.60;6.28;;;21.30;99.90;;;;;;6245996;23;20023;-61
2023/07/09 04:39:50;;;;;;;7.82;5.82;;;21.40;99.90;;;;;;6245043;23;20024;-60
2023/07/09 04:42:18;;;;;;;8.25;6.40;;;21.40;99.90;;;;;;6245483;22;20024;-60
2023/07/09 04:44:47;;;;;;;9.80;6.22;;;21.50;99.90;;;;;;6245993;23;20024;-60
2023/07/09 04:47:14;;;;;;;11.25;6.63;;;21.50;99.90;;;;;;6243486;23;20078;-60
2023/07/09 04:49:41;;;;;;;13.48;6.45;;;21.60;99.90;;;;;;6244096;23;20103;-60
2023/07/09 04:52:11;;;;;;;9.90;5.95;;;21.70;99.90;;;;;;6244199;23;20031;-60
2023/07/09 04:54:40;;;;;;;7.13;5.67;;;21.70;99.90;;;;;;6244883;23;20533;-60
2023/07/09 04:57:07;;;;;;;9.73;6.33;;;21.80;99.90;;;;;;6244017;23;20020;-60
2023/07/09 04:59:34;;;;;;;8.40;6.20;;;21.90;99.90;;;;;;6245804;23;20278;-60
2023/07/09 05:02:03;;;;;;;10.82;6.60;;;22.00;99.90;;;;;;6243273;23;20032;-60
2023/07/09 05:04:30;;;;;;;9.32;6.57;;;22.00;99.90;;;;;;6244001;23;20107;-60
2023/07/09 05:06:58;;;;;;;10.45;6.20;;;22.10;99.90;;;;;;6244068;23;20028;-59
2023/07/09 05:09:25;;;;;;;10.00;5.72;;;22.20;99.90;;;;;;6243092;23;20459;-60
2023/07/09 05:11:53;;;;;;;10.23;5.47;;;22.30;99.90;;;;;;6245862;23;20024;-60
2023/07/09 05:14:20;;;;;;;9.77;6.40;;;22.40;99.90;;;;;;6243186;23;20021;-60
2023/07/09 05:16:46;;;;;;;8.35;5.95;;;22.50;99.90;;;;;;6245779;23;20020;-60
2023/07/09 05:19:15;;;;;;;9.98;6.20;;;22.60;99.90;;;;;;6245665;23;20024;-60
2023/07/09 05:21:42;;;;;;;8.88;6.07;;;22.70;99.90;;;;;;6242986;23;20476;-60
2023/07/09 05:24:09;;;;;;;12.88;7.05;;;22.80;99.90;;;;;;6245396;23;20472;-61
2023/07/09 05:26:36;;;;;;;9.93;6.97;;;22.90;99.90;;;;;;6245601;23;20028;-61
2023/07/09 05:29:04;;;;;;;9.40;6.13;;;23.10;99.90;;;;;;6243049;23;20046;-59
2023/07/09 05:31:32;;;;;;;10.70;6.70;;;23.10;99.80;;;;;;6245672;23;20103;-59
2023/07/09 05:34:00;;;;;;;8.82;6.00;;;23.20;99.50;;;;;;6245605;23;20024;-60
2023/07/09 05:36:29;;;;;;;11.35;6.40;;;23.30;99.30;;;;;;6244546;23;20020;-60
2023/07/09 05:38:56;;;;;;;7.37;5.80;;;23.50;99.10;;;;;;6245712;23;20028;-61
2023/07/09 05:41:23;;;;;;;9.93;6.30;;;23.60;99.10;;;;;;6245214;23;20027;-60
2023/07/09 05:43:51;;;;;;;10.07;6.13;;;23.70;99.00;;;;;;6243039;23;20085;-59
2023/07/09 05:46:18;;;;;;;10.05;6.75;;;23.80;98.60;;;;;;6243399;23;20074;-60
2023/07/09 05:48:45;;;;;;;9.07;6.30;;;23.90;98.50;;;;;;6243621;23;20020;-60
2023/07/09 05:51:12;;;;;;;9.27;6.38;;;24.00;98.30;;;;;;6240116;23;20066;-61
2023/07/09 05:53:40;;;;;;;9.80;6.90;;;24.10;98.10;;;;;;6243856;23;20024;-62
2023/07/09 05:56:07;;;;;;;12.75;6.45;;;24.10;98.10;;;;;;6241665;23;20450;-60
2023/07/09 05:58:34;;;;;;;9.45;6.47;;;24.00;98.10;;;;;;6243405;23;20024;-61
2023/07/09 06:01:02;;;;;;;9.13;6.35;;;24.00;98.00;;;;;;6243824;23;20032;-61
2023/07/09 06:03:30;;;;;;;9.85;6.88;;;24.00;97.90;;;;;;6243171;23;20066;-61
2023/07/09 06:05:58;;;;;;;9.85;6.55;;;24.00;98.20;;;;;;6243891;23;20027;-61
2023/07/09 06:08:26;;;;;;;10.85;6.50;;;24.00;98.30;;;;;;6242294;23;20028;-62
2023/07/09 06:10:56;;;;;;;10.00;6.82;;;24.10;98.40;;;;;;6240827;23;20451;-62
2023/07/09 06:13:24;;;;;;;11.63;6.90;;;24.00;98.50;;;;;;6243867;23;20024;-61
2023/07/09 06:15:53;;;;;;;10.23;6.13;;;23.90;98.70;;;;;;6244470;23;20028;-62
2023/07/09 06:18:20;;;;;;;9.50;7.20;;;23.90;99.00;;;;;;6243495;23;20024;-62
2023/07/09 06:20:49;;;;;;;9.40;6.65;;;23.90;99.20;;;;;;6243645;23;20074;-61
2023/07/09 06:23:16;;;;;;;10.23;6.40;;;24.00;99.20;;;;;;6244222;23;20454;-61
2023/07/09 06:25:46;;;;;;;10.32;6.50;;;24.10;99.20;;;;;;6242089;23;20028;-62
2023/07/09 06:28:14;;;;;;;;;;;24.30;99.30;;;;;;6243239;23;20056;-62
2023/07/09 06:30:42;;;;;;;10.57;6.97;;;24.50;99.10;;;;;;6242621;23;19982;-62
2023/07/09 06:33:09;;;;;;;10.55;6.47;;;24.60;98.80;;;;;;6243426;23;20024;-62
2023/07/09 06:35:36;;;;;;;11.88;7.28;;;24.90;98.70;;;;;;6243479;23;20051;-62
2023/07/09 06:38:03;;;;;;;9.98;7.00;;;25.20;98.30;;;;;;6244663;23;20024;-62
2023/07/09 06:40:30;;;;;;;9.50;7.22;;;25.30;98.00;;;;;;6245687;22;20016;-62
2023/07/09 06:42:57;;;;;;;8.98;7.03;;;25.50;97.80;;;;;;6245656;23;20078;-60
2023/07/09 06:45:26;;;;;;;9.02;6.43;;;25.70;97.50;;;;;;6246217;23;20035;-61
2023/07/09 06:47:53;;;;;;;8.70;6.88;;;25.80;97.30;;;;;;6246064;23;20020;-62
2023/07/09 06:50:20;;;;;;;11.02;6.72;;;26.00;97.10;;;;;;6245091;23;20608;-61
2023/07/09 06:52:47;;;;;;;8.98;7.05;;;26.20;97.00;;;;;;6245812;23;20091;-61
2023/07/09 06:55:14;;;;;;;11.40;7.07;;;26.20;97.00;;;;;;6244003;23;20027;-62
2023/07/09 06:57:41;;;;;;;8.82;6.78;;;26.20;97.10;;;;;;6244491;23;20028;-61
2023/07/09 07:00:09;;;;;;;11.55;7.05;;;26.30;97.20;;;;;;6243081;23;20100;-61
2023/07/09 07:02:38;;;;;;;9.85;7.25;;;26.40;97.40;;;;;;6244712;23;20028;-61
2023/07/09 07:05:05;;;;;;;9.98;6.95;;;26.60;97.30;;;;;;6245640;23;20040;-62
2023/07/09 07:07:32;;;;;;;11.38;6.88;;;26.90;97.10;;;;;;6245940;23;20119;-61
2023/07/09 07:09:59;;;;;;;9.57;7.20;;;27.30;96.80;;;;;;6245516;23;20375;-62
2023/07/09 07:12:29;;;;;;;9.57;6.82;;;27.80;96.20;;;;;;6244416;23;20660;-62
2023/07/09 07:14:57;;;;;;;9.43;6.93;;;28.00;95.80;;;;;;6245186;23;20028;-62
2023/07/09 07:17:24;;;;;;;9.75;7.00;;;28.50;95.80;;;;;;6245754;23;20024;-61
2023/07/09 07:19:52;;;;;;;31.75;7.35;;;28.80;95.20;;;;;;6245082;23;20119;-61
2023/07/09 07:22:19;;;;;;;9.35;6.38;;;29.20;94.50;;;;;;6243071;23;20032;-62
2023/07/09 07:24:46;;;;;;;10.18;7.28;;;29.60;94.40;;;;;;6245656;22;20328;-61
2023/07/09 07:27:13;;;;;;;11.35;6.88;;;30.10;93.80;;;;;;6245943;23;20104;-61
2023/07/09 07:29:40;;;;;;;8.13;6.25;;;30.10;93.40;;;;;;6245306;23;20342;-61
2023/07/09 07:32:08;;;;;;;8.70;6.65;;;30.30;93.10;;;;;;6243269;23;20039;-61
2023/07/09 07:34:35;;;;;;;12.93;6.53;;;30.50;92.70;;;;;;6244010;23;20020;-62
2023/07/09 07:37:04;;;;;;;9.60;6.55;;;30.40;92.70;;;;;;6242841;23;20535;-61
2023/07/09 07:39:31;;;;;;;10.52;7.00;;;30.30;92.70;;;;;;6245954;23;20043;-62
2023/07/09 07:41:58;;;;;;;9.40;6.97;;;30.10;92.90;;;;;;6244947;23;20406;-62
2023/07/09 07:44:25;;;;;;;9.70;6.50;;;30.20;93.10;;;;;;6245811;23;20099;-62
2023/07/09 07:46:52;;;;;;;11.05;6.45;;;30.10;93.10;;;;;;6245123;23;20024;-61
2023/07/09 07:49:19;;;;;;;7.55;6.03;;;29.90;93.10;;;;;;6243663;23;20024;-62
2023/07/09 07:51:46;;;;;;;9.27;6.85;;;29.90;93.20;;;;;;6245159;23;20027;-61
2023/07/09 07:54:14;;;;;;;9.95;6.80;;;30.30;93.10;;;;;;6245258;23;20469;-61
2023/07/09 07:56:42;;;;;;;7.90;5.90;;;30.80;92.70;;;;;;6244582;23;20074;-61
2023/07/09 07:59:09;;;;;;;9.00;6.85;;;31.10;92.50;;;;;;6246071;23;20043;-61
2023/07/09 08:01:36;;;;;;;9.10;6.32;;;31.40;92.20;;;;;;6243550;23;20020;-62
2023/07/09 08:04:03;;;;;;;8.82;6.47;;;31.90;91.80;;;;;;6245093;23;20028;-62
2023/07/09 08:06:31;;;;;;;8.57;6.47;;;32.20;91.30;;;;;;6243328;23;20024;-61
2023/07/09 08:08:58;;;;;;;9.18;6.18;;;32.50;90.90;;;;;;6245889;23;20024;-60
2023/07/09 08:11:27;;;;;;;9.65;6.15;;;32.70;90.50;;;;;;6244338;23;20030;-61
2023/07/09 08:13:54;;;;;;;10.50;6.15;;;33.10;90.20;;;;;;6243859;23;20458;-61
2023/07/09 08:16:21;;;;;;;8.07;6.38;;;33.50;89.70;;;;;;6244729;22;20094;-62
2023/07/09 08:18:48;;;;;;;9.55;5.60;;;33.50;88.30;;;;;;6244531;23;20086;-61
2023/07/09 08:21:15;;;;;;;12.98;7.38;;;33.40;88.20;;;;;;6244976;23;20020;-61
2023/07/09 08:23:42;;;;;;;11.35;6.13;;;33.40;87.90;;;;;;6245108;23;20077;-61
2023/07/09 08:26:09;;;;;;;9.40;6.38;;;33.10;88.20;;;;;;6242803;23;20024;-62
2023/07/09 08:28:38;;;;;;;7.88;6.63;;;33.30;87.90;;;;;;6245465;23;20023;-60
2023/07/09 08:31:05;;;;;;;8.00;6.43;;;33.50;87.20;;;;;;6245104;23;20473;-62
2023/07/09 08:33:33;;;;;;;9.13;7.00;;;33.10;87.20;;;;;;6244516;23;20028;-62
2023/07/09 08:36:00;;;;;;;13.07;7.43;;;33.40;87.40;;;;;;6245259;23;20059;-62
2023/07/09 08:38:27;;;;;;;12.13;6.85;;;33.50;87.20;;;;;;6244459;23;20020;-61
2023/07/09 08:40:58;;;;;;;8.95;7.38;;;33.70;87.20;;;;;;6244867;22;20062;-61
2023/07/09 08:43:34;;;;;;;11.10;7.68;;;33.70;86.60;;;;;;6244451;23;20034;-61
2023/07/09 08:46:11;;;;;;;11.13;8.25;;;33.90;85.70;;;;;;6244370;23;20035;-61
2023/07/09 08:48:43;;;;;;;12.63;7.35;;;34.10;85.90;;;;;;6243022;23;20020;-62
2023/07/09 08:51:15;;;;;;;8.27;6.78;;;34.50;85.60;;;;;;6244877;22;20020;-62
2023/07/09 08:53:49;;;;;;;9.93;7.88;;;34.60;85.40;;;;;;6244839;23;20028;-62
2023/07/09 08:56:17;;;;;;;10.63;7.53;;;34.60;85.10;;;;;;6244466;23;20020;-62
2023/07/09 08:58:45;;;;;;;10.63;7.63;;;35.20;84.90;;;;;;6244463;23;20445;-62
2023/07/09 09:01:20;;;;;;;11.18;6.80;;;35.70;84.30;;;;;;6242319;23;20031;-62
2023/07/09 09:03:51;;;;;;;12.30;7.63;;;36.10;82.70;;;;;;6245094;23;20074;-62
2023/07/09 09:06:21;;;;;;;9.02;7.45;;;35.90;82.50;;;;;;6244607;23;20051;-63
2023/07/09 09:09:03;;;;;;;10.73;7.88;;;36.00;82.10;;;;;;6244485;23;20031;-63
2023/07/09 09:11:43;;;;;;;8.75;7.25;;;35.80;81.60;;;;;;6242202;23;20066;-62
2023/07/09 09:14:27;;;;;;;11.32;7.43;;;35.90;82.80;;;;;;6244563;23;20393;-61
2023/07/09 09:16:57;;;;;;;12.45;7.88;;;35.90;82.00;;;;;;6244392;23;20056;-62
2023/07/09 09:19:28;;;;;;;10.75;7.60;;;35.80;82.30;;;;;;6242702;23;20078;-61
2023/07/09 09:22:03;;;;;;;11.85;7.55;;;35.80;82.70;;;;;;6242226;23;20539;-61
2023/07/09 09:24:35;;;;;;;12.10;6.95;;;35.70;82.80;;;;;;6243171;23;20024;-61
2023/07/09 09:27:03;;;;;;;9.35;7.53;;;35.90;82.70;;;;;;6243051;23;20032;-62
2023/07/09 09:29:29;;;;;;;13.40;7.75;;;36.20;83.00;;;;;;6244002;23;20024;-62
2023/07/09 09:32:19;;;;;;;9.52;7.40;;;36.40;82.00;;;;;;6242532;23;20474;-62
2023/07/09 09:34:46;;;;;;;12.27;6.95;;;36.70;81.70;;;;;;6242124;23;20091;-62
2023/07/09 09:37:13;;;;;;;9.15;7.07;;;36.80;81.50;;;;;;6244705;23;20392;-62
2023/07/09 09:39:40;;;;;;;9.30;7.35;;;37.00;81.30;;;;;;6244109;23;20028;-62
2023/07/09 09:42:12;;;;;;;12.45;8.38;;;36.50;81.70;;;;;;6241906;23;20020;-62
2023/07/09 09:44:45;;;;;;;11.13;7.47;;;36.40;81.50;;;;;;6244117;23;20074;-62
2023/07/09 09:47:13;;;;;;;11.35;8.00;;;36.40;81.80;;;;;;6244318;23;20389;-62
2023/07/09 09:49:40;;;;;;;10.05;7.15;;;36.40;81.80;;;;;;6241760;23;20373;-62
2023/07/09 09:52:13;;;;;;;12.18;7.97;;;36.30;82.10;;;;;;6241736;23;20458;-61
2023/07/09 09:54:42;;;;;;;10.73;7.60;;;36.40;82.10;;;;;;6244129;23;20028;-62
2023/07/09 09:57:18;;;;;;;8.77;6.35;;;36.70;80.90;;;;;;6243681;23;20024;-61
2023/07/09 09:59:47;;;;;;;8.68;7.00;;;37.20;80.10;;;;;;6242711;23;20103;-61
2023/07/09 10:02:19;;;;;;;12.73;6.90;;;37.30;80.60;;;;;;6241417;23;20024;-62
2023/07/09 10:04:47;;;;;;;13.98;7.40;;;37.60;79.60;;;;;;6241717;23;20024;-62
2023/07/09 10:07:23;;;;;;;7.65;6.35;;;37.40;79.40;;;;;;6243771;22;20047;-62
2023/07/09 10:09:53;;;;;;;11.35;7.13;;;37.60;78.90;;;;;;6245062;23;20086;-63
2023/07/09 10:12:34;;;;;;;11.35;7.22;;;37.30;78.60;;;;;;6246900;23;20022;-61
2023/07/09 10:15:12;;;;;;;12.45;7.25;;;37.80;79.00;;;;;;6245628;23;20031;-61
2023/07/09 10:17:47;;;;;;;9.65;6.60;;;37.60;79.30;;;;;;6244559;23;20024;-62
2023/07/09 10:20:22;;;;;;;11.93;6.53;;;38.10;79.50;;;;;;6246924;23;20350;-62
2023/07/09 10:22:55;;;;;;;7.57;6.10;;;38.30;79.00;;;;;;6245490;23;20389;-62
2023/07/09 10:25:37;;;;;;;8.93;6.03;;;38.20;78.00;;;;;;6246430;23;20039;-62
2023/07/09 10:28:24;;;;;;;11.07;6.30;;;38.50;77.00;;;;;;6245168;23;20048;-62
2023/07/09 10:31:05;;;;;;;9.88;6.00;;;38.70;76.70;;;;;;6245466;23;20024;-62
2023/07/09 10:33:46;;;;;;;8.10;6.15;;;39.00;75.70;;;;;;6245652;23;20099;-62
2023/07/09 10:36:25;;;;;;;8.68;6.20;;;38.80;75.60;;;;;;6247220;23;20081;-63
2023/07/09 10:38:58;;;;;;;9.88;5.57;;;38.70;76.20;;;;;;6246396;23;20036;-61
2023/07/09 10:41:26;;;;;;;8.93;6.57;;;38.80;75.90;;;;;;6246999;23;20111;-61
2023/07/09 10:43:58;;;;;;;10.35;5.88;;;38.60;76.30;;;;;;6245181;23;20024;-62
2023/07/09 10:46:27;;;;;;;7.78;6.40;;;38.50;76.00;;;;;;6245995;23;20024;-62
2023/07/09 10:48:57;;;;;;;10.38;5.72;;;38.10;75.70;;;;;;6246964;23;20028;-63
2023/07/09 10:51:29;;;;;;;11.88;6.63;;;38.10;76.50;;;;;;6245238;23;20071;-62
2023/07/09 10:53:58;;;;;;;7.63;6.35;;;38.20;76.20;;;;;;6246150;23;20020;-63
2023/07/09 10:56:28;;;;;;;8.38;5.90;;;38.40;76.50;;;;;;6247432;23;20334;-62
2023/07/09 10:59:05;;;;;;;9.70;6.57;;;38.90;76.70;;;;;;6245055;23;20533;-62
2023/07/09 11:01:36;;;;;;;9.45;6.65;;;38.90;75.80;;;;;;6247154;23;20103;-62
2023/07/09 11:04:09;;;;;;;7.72;6.65;;;38.70;76.30;;;;;;6246831;23;20028;-63
2023/07/09 11:06:40;;;;;;;7.68;5.57;;;38.70;76.50;;;;;;6246314;22;20082;-63
2023/07/09 11:09:14;;;;;;;9.23;5.80;;;39.00;75.60;;;;;;6246792;23;20027;-62
2023/07/09 11:11:46;;;;;;;9.25;6.95;;;38.90;76.00;;;;;;6245086;23;20016;-62
2023/07/09 11:14:26;;;;;;;10.00;5.20;;;38.50;75.30;;;;;;6246088;23;20035;-61
2023/07/09 11:16:56;;;;;;;10.80;5.70;;;39.00;76.20;;;;;;6245298;23;20034;-61
2023/07/09 11:19:25;;;;;;;10.95;5.80;;;38.80;75.70;;;;;;6246944;23;20055;-62
2023/07/09 11:22:03;;;;;;;9.35;5.78;;;39.30;75.70;;;;;;6243905;23;20103;-62
2023/07/09 11:24:34;;;;;;;9.07;5.60;;;39.50;74.90;;;;;;6246604;23;20031;-62
2023/07/09 11:27:01;;;;;;;7.03;4.93;;;39.60;75.20;;;;;;6246834;23;20024;-62
2023/07/09 11:29:28;;;;;;;9.55;5.05;;;39.30;74.80;;;;;;6245589;23;20353;-61
2023/07/09 11:31:59;;;;;;;7.50;5.17;;;39.60;75.50;;;;;;6246766;23;20047;-61
2023/07/09 11:34:30;;;;;;;7.18;5.55;;;39.50;74.20;;;;;;6243870;23;20099;-61
2023/07/09 11:36:59;;;;;;;7.75;5.47;;;39.70;73.90;;;;;;6246245;23;20135;-62
2023/07/09 11:39:30;;;;;;;7.97;5.20;;;39.80;73.80;;;;;;6244799;23;20031;-62
2023/07/09 11:41:57;;;;;;;7.95;5.50;;;40.10;73.50;;;;;;6245424;23;20478;-62
2023/07/09 11:44:28;;;;;;;9.35;4.95;;;40.10;73.80;;;;;;6244537;23;20024;-62
2023/07/09 11:47:23;;;;;;;8.73;5.05;;;40.10;73.30;;;;;;6246665;23;20075;-62
2023/07/09 11:49:58;;;;;;;8.43;5.38;;;39.60;72.60;;;;;;6192692;23;20020;-62
2023/07/09 11:52:29;;;;;;;8.13;5.43;;;39.40;72.90;;;;;;6244713;23;20105;-62
2023/07/09 11:54:56;;;;;;;6.20;4.43;;;39.40;72.20;;;;;;6244414;23;20086;-62
2023/07/09 11:57:23;;;;;;;7.05;5.28;;;39.70;73.10;;;;;;6245702;23;20058;-62
2023/07/09 11:59:50;;;;;;;6.72;5.10;;;39.70;73.20;;;;;;6245894;23;20458;-62
2023/07/09 12:02:19;;;;;;;8.82;5.40;;;39.90;72.70;;;;;;6244461;23;20350;-62
2023/07/09 12:04:50;;;;;;;8.43;5.22;;;40.10;72.50;;;;;;6244389;23;20071;-62
2023/07/09 12:07:20;;;;;;;7.13;4.57;;;40.00;72.30;;;;;;6246596;23;20031;-62
2023/07/09 12:09:50;;;;;;;7.30;5.03;;;40.40;72.30;;;;;;6245156;23;20462;-62
2023/07/09 12:12:20;;;;;;;7.82;4.57;;;40.20;72.20;;;;;;6246158;23;20342;-62
2023/07/09 12:14:47;;;;;;;6.97;4.88;;;40.00;72.00;;;;;;6244362;23;20082;-62
2023/07/09 12:17:14;;;;;;;8.43;4.80;;;40.10;71.80;;;;;;6245679;23;20392;-62
2023/07/09 12:19:41;;;;;;;6.05;3.75;;;40.00;71.20;;;;;;6246208;23;20020;-62
2023/07/09 12:22:15;;;;;;;4.57;3.63;;;39.80;69.40;;;;;;6244332;23;20016;-62
2023/07/09 12:24:45;;;;;;;14.73;4.75;;;39.60;69.20;;;;;;6245155;23;20028;-62
2023/07/09 12:27:21;;;;;;;6.15;4.05;;;39.90;69.10;;;;;;6244389;23;20024;-62
2023/07/09 12:29:50;;;;;;;7.50;3.85;;;40.20;68.90;;;;;;6244287;23;20074;-62
2023/07/09 12:32:18;;;;;;;8.43;4.30;;;40.40;68.40;;;;;;6244999;23;20115;-62
2023/07/09 12:34:48;;;;;;;8.93;4.05;;;40.50;68.20;;;;;;6245725;23;20024;-62
2023/07/09 12:37:17;;;;;;;5.93;3.97;;;40.20;67.70;;;;;;6246128;23;20385;-62
2023/07/09 12:39:45;;;;;;;6.80;4.88;;;40.20;68.00;;;;;;6243501;23;20028;-61
2023/07/09 12:42:18;;;;;;;6.40;4.05;;;39.60;68.00;;;;;;6245687;23;20086;-61
2023/07/09 12:44:46;;;;;;;6.88;4.18;;;39.40;68.80;;;;;;6243431;23;20024;-61
2023/07/09 12:47:15;;;;;;;4.60;3.70;;;38.90;69.10;;;;;;6244243;23;20035;-61
2023/07/09 12:49:44;;;;;;;6.32;3.70;;;38.90;69.20;;;;;;6245812;23;20380;-62
2023/07/09 12:52:18;;;;;;;5.25;3.88;;;39.10;68.30;;;;;;6243684;23;20020;-61
2023/07/09 12:54:55;;;;;;;6.05;4.18;;;39.10;68.80;;;;;;6243921;23;20024;-61